createdAt,value
2019-05-01T00:00:28.920Z,79.58
2019-05-01T00:03:16.262Z,79.60
2019-05-01T00:05:48.126Z,70.17
2019-05-01T00:08:18.007Z,75.05
2019-05-01T00:10:47.761Z,77.05
2019-05-01T00:13:17.736Z,76.50
2019-05-01T00:15:47.924Z,74.75
2019-05-01T00:18:18.036Z,71.97
2019-05-01T00:20:48.008Z,72.67
2019-05-01T00:23:17.482Z,72.50
2019-05-01T00:25:47.202Z,70.40
2019-05-01T00:28:16.914Z,74.32
2019-05-01T00:30:46.570Z,73.47
2019-05-01T00:33:16.114Z,74.72
2019-05-01T00:35:45.865Z,69.07
2019-05-01T00:38:15.528Z,69.37
2019-05-01T00:40:45.244Z,71.07
2019-05-01T00:43:15.963Z,78.17
2019-05-01T00:45:45.726Z,72.30
2019-05-01T00:48:15.766Z,71.12
2019-05-01T00:50:45.316Z,73.47
2019-05-01T00:53:15.002Z,72.80
2019-05-01T00:56:04.850Z,73.20
2019-05-01T00:58:51.279Z,74.85
2019-05-01T01:01:28.713Z,74.97
2019-05-01T01:03:58.518Z,74.17
2019-05-01T01:06:28.164Z,71.92
2019-05-01T01:08:57.707Z,70.47
2019-05-01T01:11:27.361Z,69.87
2019-05-01T01:13:57.306Z,71.00
2019-05-01T01:16:28.172Z,70.17
2019-05-01T01:18:58.105Z,69.95
2019-05-01T01:21:28.073Z,70.17
2019-05-01T01:23:58.747Z,70.05
2019-05-01T01:26:29.369Z,72.40
2019-05-01T01:28:59.220Z,71.28
2019-05-01T01:31:28.965Z,67.50
2019-05-01T01:33:58.699Z,69.17
2019-05-01T01:36:28.148Z,72.40
2019-05-01T01:38:57.964Z,66.65
2019-05-01T01:41:27.608Z,78.42
2019-05-01T01:44:02.112Z,76.45
2019-05-01T01:46:33.471Z,74.67
2019-05-01T01:49:03.558Z,71.62
2019-05-01T01:51:33.009Z,70.12
2019-05-01T01:54:03.190Z,73.15
2019-05-01T01:56:33.105Z,71.15
2019-05-01T01:59:03.291Z,72.15
2019-05-01T02:01:46.601Z,73.50
2019-05-01T02:04:17.768Z,72.05
2019-05-01T02:06:48.839Z,69.50
2019-05-01T02:09:18.546Z,71.92
2019-05-01T02:11:48.916Z,72.47
2019-05-01T02:14:18.763Z,71.80
2019-05-01T02:16:49.179Z,73.12
2019-05-01T02:19:19.028Z,74.87
2019-05-01T02:21:48.460Z,71.07
2019-05-01T02:24:18.282Z,71.17
2019-05-01T02:26:53.283Z,72.05
2019-05-01T02:29:28.525Z,73.10
2019-05-01T02:32:00.350Z,70.55
2019-05-01T02:34:31.353Z,74.70
2019-05-01T02:37:03.793Z,70.70
2019-05-01T02:39:35.445Z,68.50
2019-05-01T02:42:07.032Z,75.10
2019-05-01T02:44:49.167Z,71.40
2019-05-01T02:47:21.697Z,79.17
2019-05-01T02:49:54.613Z,71.82
2019-05-01T02:52:28.852Z,71.62
2019-05-01T02:55:03.793Z,74.22
2019-05-01T02:57:34.907Z,73.20
2019-05-01T03:00:06.251Z,74.80
2019-05-01T03:02:37.795Z,73.30
2019-05-01T03:05:08.607Z,76.87
2019-05-01T03:07:39.469Z,70.97
2019-05-01T03:10:10.020Z,79.07
2019-05-01T03:12:43.400Z,74.37
2019-05-01T03:15:13.678Z,83.30
2019-05-01T03:17:46.743Z,74.22
2019-05-01T03:20:24.991Z,76.80
2019-05-01T03:23:14.435Z,74.50
2019-05-01T03:25:45.003Z,78.00
2019-05-01T03:28:15.407Z,76.53
2019-05-01T03:30:45.222Z,77.87
2019-05-01T03:33:14.930Z,79.72
2019-05-01T03:35:44.707Z,75.78
2019-05-01T03:38:14.400Z,80.12
2019-05-01T03:40:44.232Z,79.53
2019-05-01T03:43:14.444Z,80.90
2019-05-01T03:45:44.437Z,79.53
2019-05-01T03:48:14.519Z,79.15
2019-05-01T03:50:47.130Z,85.95
2019-05-01T03:53:17.407Z,84.00
2019-05-01T03:55:48.295Z,80.07
2019-05-01T03:58:19.090Z,83.75
2019-05-01T04:00:50.624Z,81.45
2019-05-01T04:03:25.707Z,81.70
2019-05-01T04:05:55.556Z,78.40
2019-05-01T04:08:25.343Z,82.45
2019-05-01T04:10:55.925Z,86.22
2019-05-01T04:13:25.918Z,78.80
2019-05-01T04:15:56.011Z,77.70
2019-05-01T04:18:27.272Z,78.70
2019-05-01T04:20:58.021Z,84.40
2019-05-01T04:23:28.692Z,79.12
2019-05-01T04:25:58.472Z,76.02
2019-05-01T04:28:33.238Z,79.72
2019-05-01T04:31:05.333Z,83.52
2019-05-01T04:33:37.261Z,77.00
2019-05-01T04:36:15.356Z,82.30
2019-05-01T04:38:44.896Z,83.65
2019-05-01T04:41:14.993Z,80.87
2019-05-01T04:43:44.775Z,76.92
2019-05-01T04:46:15.291Z,80.97
2019-05-01T04:48:45.227Z,83.27
2019-05-01T04:51:16.343Z,83.47
2019-05-01T04:53:46.914Z,85.62
2019-05-01T04:56:16.528Z,85.38
2019-05-01T04:58:46.940Z,83.03
2019-05-01T05:01:16.842Z,80.12
2019-05-01T05:03:47.099Z,81.22
2019-05-01T05:06:17.392Z,88.35
2019-05-01T05:08:48.099Z,81.55
2019-05-01T05:11:19.521Z,82.20
2019-05-01T05:14:09.852Z,84.60
2019-05-01T05:16:47.894Z,84.72
2019-05-01T05:19:17.600Z,79.95
2019-05-01T05:21:48.082Z,77.92
2019-05-01T05:24:17.883Z,83.50
2019-05-01T05:26:48.463Z,78.78
2019-05-01T05:29:20.414Z,82.47
2019-05-01T05:31:51.814Z,87.00
2019-05-01T05:34:22.967Z,77.82
2019-05-01T05:36:57.368Z,80.07
2019-05-01T05:39:33.470Z,83.22
2019-05-01T05:42:04.979Z,85.92
2019-05-01T05:44:35.768Z,84.47
2019-05-01T05:47:05.802Z,80.12
2019-05-01T05:49:35.921Z,84.90
2019-05-01T05:52:08.855Z,82.80
2019-05-01T05:54:51.139Z,83.75
2019-05-01T05:57:33.950Z,77.70
2019-05-01T06:00:06.766Z,80.32
2019-05-01T06:02:40.368Z,81.50
2019-05-01T06:05:21.035Z,78.83
2019-05-01T06:08:11.161Z,84.28
2019-05-01T06:11:01.085Z,81.65
2019-05-01T06:13:52.508Z,82.67
2019-05-01T06:16:25.926Z,82.15
2019-05-01T06:18:57.405Z,80.05
2019-05-01T06:21:34.638Z,85.05
2019-05-01T06:24:06.659Z,84.30
2019-05-01T06:26:39.119Z,83.80
2019-05-01T06:29:08.469Z,80.30
2019-05-01T06:31:38.872Z,85.15
2019-05-01T06:34:09.061Z,90.90
2019-05-01T06:36:39.660Z,89.65
2019-05-01T06:39:12.004Z,86.55
2019-05-01T06:41:43.598Z,86.97
2019-05-01T06:44:33.387Z,89.80
2019-05-01T06:47:13.231Z,90.92
2019-05-01T06:49:48.348Z,87.92
2019-05-01T06:52:19.916Z,92.72
2019-05-01T06:54:52.120Z,93.22
2019-05-01T06:57:23.484Z,93.12
2019-05-01T06:59:54.775Z,94.55
2019-05-01T07:02:29.756Z,87.62
2019-05-01T07:05:00.758Z,90.10
2019-05-01T07:07:31.858Z,90.70
2019-05-01T07:10:02.254Z,92.60
2019-05-01T07:12:32.941Z,94.25
2019-05-01T07:15:03.844Z,96.57
2019-05-01T07:17:33.799Z,92.00
2019-05-01T07:20:25.603Z,94.10
2019-05-01T07:22:55.713Z,95.03
2019-05-01T07:25:25.584Z,93.00
2019-05-01T07:27:58.544Z,91.67
2019-05-01T07:30:31.317Z,92.55
2019-05-01T07:33:01.574Z,94.92
2019-05-01T07:35:36.775Z,94.55
2019-05-01T07:38:05.495Z,91.42
2019-05-01T07:40:36.155Z,90.35
2019-05-01T07:43:23.380Z,95.38
2019-05-01T07:46:13.810Z,93.13
2019-05-01T07:48:44.088Z,90.55
2019-05-01T07:51:14.381Z,91.15
2019-05-01T07:53:44.660Z,98.67
2019-05-01T07:56:17.098Z,90.38
2019-05-01T07:58:47.606Z,94.72
2019-05-01T08:01:20.144Z,92.53
2019-05-01T08:03:49.993Z,93.25
2019-05-01T08:06:21.838Z,92.65
2019-05-01T08:08:51.482Z,88.52
2019-05-01T08:11:21.135Z,92.85
2019-05-01T08:13:50.828Z,96.22
2019-05-01T08:16:20.215Z,95.20
2019-05-01T08:18:51.308Z,94.15
2019-05-01T08:21:28.835Z,99.85
2019-05-01T08:23:58.585Z,94.60
2019-05-01T08:26:28.363Z,106.03
2019-05-01T08:29:06.581Z,106.85
2019-05-01T08:31:53.019Z,97.57
2019-05-01T08:34:26.502Z,102.00
2019-05-01T08:36:56.314Z,124.77
2019-05-01T08:39:26.033Z,104.45
2019-05-01T08:41:56.269Z,94.92
2019-05-01T08:44:29.543Z,94.97
2019-05-01T08:47:00.475Z,100.85
2019-05-01T08:49:31.943Z,95.32
2019-05-01T08:52:04.767Z,95.07
2019-05-01T08:54:34.750Z,93.95
2019-05-01T08:57:07.675Z,104.80
2019-05-01T08:59:36.181Z,102.32
2019-05-01T09:02:09.391Z,102.27
2019-05-01T09:04:36.864Z,98.27
2019-05-01T09:07:06.341Z,102.00
2019-05-01T09:09:39.805Z,97.95
2019-05-01T09:12:11.913Z,100.80
2019-05-01T09:14:39.926Z,99.28
2019-05-01T09:17:09.378Z,100.70
2019-05-01T09:19:39.931Z,100.10
2019-05-01T09:22:09.757Z,97.78
2019-05-01T09:24:40.083Z,94.60
2019-05-01T09:27:29.611Z,94.00
2019-05-01T09:30:00.080Z,100.18
2019-05-01T09:32:30.296Z,95.67
2019-05-01T09:34:59.944Z,99.45
2019-05-01T09:37:29.393Z,99.05
2019-05-01T09:40:04.184Z,98.45
2019-05-01T09:42:31.908Z,108.25
2019-05-01T09:45:01.756Z,107.15
2019-05-01T09:47:31.515Z,105.58
2019-05-01T09:50:02.637Z,104.70
2019-05-01T09:52:44.678Z,100.20
2019-05-01T09:55:23.172Z,109.03
2019-05-01T09:57:50.542Z,104.60
2019-05-01T10:00:28.027Z,104.63
2019-05-01T10:02:57.493Z,103.58
2019-05-01T10:05:29.008Z,103.27
2019-05-01T10:08:00.087Z,107.15
2019-05-01T10:10:30.617Z,109.30
2019-05-01T10:13:00.394Z,108.25
2019-05-01T10:15:29.847Z,103.90
2019-05-01T10:17:59.811Z,102.95
2019-05-01T10:20:29.465Z,106.65
2019-05-01T10:22:59.218Z,108.30
2019-05-01T10:25:28.859Z,103.85
2019-05-01T10:28:00.044Z,110.52
2019-05-01T10:30:43.732Z,113.90
2019-05-01T10:33:24.234Z,107.25
2019-05-01T10:35:55.552Z,104.85
2019-05-01T10:38:25.171Z,98.97
2019-05-01T10:40:54.819Z,103.45
2019-05-01T10:43:24.475Z,102.15
2019-05-01T10:45:55.634Z,102.90
2019-05-01T10:48:25.362Z,102.40
2019-05-01T10:50:55.050Z,104.27
2019-05-01T10:53:24.499Z,97.45
2019-05-01T10:55:53.882Z,106.63
2019-05-01T10:58:23.738Z,101.30
2019-05-01T11:00:55.215Z,102.35
2019-05-01T11:03:25.639Z,100.82
2019-05-01T11:05:56.310Z,97.72
2019-05-01T11:08:26.292Z,95.47
2019-05-01T11:10:55.897Z,93.82
2019-05-01T11:13:25.761Z,98.87
2019-05-01T11:15:55.771Z,92.88
2019-05-01T11:18:25.559Z,95.70
2019-05-01T11:20:55.221Z,91.05
2019-05-01T11:23:25.577Z,80.40
2019-05-01T11:25:55.220Z,90.38
2019-05-01T11:28:25.373Z,90.22
2019-05-01T11:30:54.831Z,84.95
2019-05-01T11:33:29.020Z,91.12
2019-05-01T11:36:09.500Z,87.57
2019-05-01T11:38:39.309Z,82.88
2019-05-01T11:41:10.404Z,86.50
2019-05-01T11:43:40.042Z,92.17
2019-05-01T11:46:09.896Z,91.90
2019-05-01T11:48:39.635Z,89.20
2019-05-01T11:51:09.644Z,93.45
2019-05-01T11:53:39.503Z,93.15
2019-05-01T11:56:08.959Z,89.67
2019-05-01T11:58:38.897Z,91.02
2019-05-01T12:01:10.463Z,89.95
2019-05-01T12:03:40.119Z,92.62
2019-05-01T12:06:21.861Z,93.05
2019-05-01T12:08:41.017Z,89.30
2019-05-01T12:11:13.220Z,86.32
2019-05-01T12:13:44.109Z,87.08
2019-05-01T12:16:15.877Z,86.05
2019-05-01T12:18:46.389Z,81.75
2019-05-01T12:21:16.035Z,88.97
2019-05-01T12:23:45.778Z,80.17
2019-05-01T12:26:15.499Z,76.02
2019-05-01T12:28:45.201Z,76.30
2019-05-01T12:31:14.902Z,87.40
2019-05-01T12:33:45.074Z,78.42
2019-05-01T12:36:14.794Z,71.85
2019-05-01T12:38:44.598Z,75.00
2019-05-01T12:41:19.064Z,89.58
2019-05-01T12:43:48.978Z,77.25
2019-05-01T12:46:35.543Z,75.90
2019-05-01T12:49:05.258Z,73.00
2019-05-01T12:51:35.358Z,72.35
2019-05-01T12:54:09.111Z,77.22
2019-05-01T12:56:40.482Z,84.80
2019-05-01T12:59:10.249Z,77.40
2019-05-01T13:01:40.274Z,77.42
2019-05-01T13:04:09.820Z,79.32
2019-05-01T13:06:49.198Z,80.95
2019-05-01T13:09:11.063Z,78.65
2019-05-01T13:11:40.967Z,76.92
2019-05-01T13:14:10.661Z,76.40
2019-05-01T13:16:40.380Z,83.40
2019-05-01T13:19:10.085Z,73.78
2019-05-01T13:21:40.851Z,76.85
2019-05-01T13:24:10.694Z,76.12
2019-05-01T13:26:48.590Z,70.42
2019-05-01T13:29:25.577Z,76.30
2019-05-01T13:32:02.875Z,70.10
2019-05-01T13:34:33.521Z,70.57
2019-05-01T13:37:03.546Z,76.02
2019-05-01T13:39:33.754Z,85.10
2019-05-01T13:42:03.429Z,77.22
2019-05-01T13:44:33.162Z,72.85
2019-05-01T13:47:02.912Z,73.40
2019-05-01T13:49:33.415Z,81.20
2019-05-01T13:52:03.404Z,71.70
2019-05-01T13:54:33.857Z,69.05
2019-05-01T13:57:03.581Z,73.30
2019-05-01T13:59:33.358Z,74.12
2019-05-01T14:02:03.019Z,82.67
2019-05-01T14:04:32.930Z,71.53
2019-05-01T14:07:15.539Z,66.70
2019-05-01T14:09:34.293Z,69.37
2019-05-01T14:12:03.895Z,78.92
2019-05-01T14:14:33.560Z,83.03
2019-05-01T14:17:03.555Z,81.60
2019-05-01T14:19:34.877Z,73.57
2019-05-01T14:22:06.022Z,72.70
2019-05-01T14:24:42.924Z,69.17
2019-05-01T14:27:12.696Z,72.60
2019-05-01T14:29:42.244Z,71.20
2019-05-01T14:32:12.792Z,72.97
2019-05-01T14:34:42.678Z,67.55
2019-05-01T14:37:13.012Z,71.17
2019-05-01T14:39:42.918Z,71.72
2019-05-01T14:42:12.363Z,72.22
2019-05-01T14:44:41.916Z,77.08
2019-05-01T14:47:11.893Z,67.42
2019-05-01T14:49:42.327Z,85.95
2019-05-01T14:52:12.354Z,76.25
2019-05-01T14:54:42.200Z,85.22
2019-05-01T14:57:12.952Z,88.60
2019-05-01T14:59:44.389Z,85.97
2019-05-01T15:02:14.177Z,84.90
2019-05-01T15:04:43.932Z,72.50
2019-05-01T15:07:13.959Z,67.65
2019-05-01T15:09:44.012Z,89.62
2019-05-01T15:12:14.257Z,77.87
2019-05-01T15:14:47.040Z,69.55
2019-05-01T15:17:18.374Z,69.42
2019-05-01T15:19:49.770Z,66.87
2019-05-01T15:22:19.290Z,64.17
2019-05-01T15:24:48.915Z,67.25
2019-05-01T15:27:18.633Z,66.17
2019-05-01T15:29:48.375Z,62.73
2019-05-01T15:32:18.109Z,63.25
2019-05-01T15:34:47.746Z,64.22
2019-05-01T15:37:17.307Z,61.30
2019-05-01T15:39:51.442Z,58.08
2019-05-01T15:42:31.147Z,55.95
2019-05-01T15:45:01.275Z,61.05
2019-05-01T15:47:31.036Z,64.12
2019-05-01T15:50:01.603Z,53.87
2019-05-01T15:52:31.259Z,51.92
2019-05-01T15:55:01.230Z,48.65
2019-05-01T15:57:31.156Z,54.18
2019-05-01T16:00:00.784Z,49.90
2019-05-01T16:02:31.128Z,47.23
2019-05-01T16:05:00.589Z,48.58
2019-05-01T16:07:30.319Z,44.88
2019-05-01T16:10:00.162Z,47.40
2019-05-01T16:12:31.240Z,48.00
2019-05-01T16:15:00.911Z,47.05
2019-05-01T16:17:30.363Z,47.00
2019-05-01T16:20:00.295Z,42.50
2019-05-01T16:22:30.262Z,42.50
2019-05-01T16:24:59.708Z,46.77
2019-05-01T16:27:30.834Z,40.15
2019-05-01T16:30:00.686Z,42.80
2019-05-01T16:32:30.895Z,41.37
2019-05-01T16:35:00.450Z,39.18
2019-05-01T16:37:30.135Z,42.00
2019-05-01T16:40:01.295Z,44.23
2019-05-01T16:42:32.372Z,43.92
2019-05-01T16:45:02.009Z,42.53
2019-05-01T16:47:31.655Z,40.65
2019-05-01T16:50:01.515Z,48.33
2019-05-01T16:52:33.135Z,44.93
2019-05-01T16:55:03.112Z,45.60
2019-05-01T16:57:32.903Z,46.68
2019-05-01T17:00:02.522Z,47.00
2019-05-01T17:02:36.680Z,44.27
2019-05-01T17:05:13.962Z,51.83
2019-05-01T17:07:57.264Z,46.95
2019-05-01T17:10:37.690Z,54.35
2019-05-01T17:13:07.607Z,49.98
2019-05-01T17:15:45.011Z,59.58
2019-05-01T17:18:14.896Z,53.58
2019-05-01T17:20:44.546Z,55.08
2019-05-01T17:23:14.055Z,61.53
2019-05-01T17:25:43.695Z,59.03
2019-05-01T17:28:13.402Z,57.62
2019-05-01T17:30:46.463Z,60.00
2019-05-01T17:33:20.940Z,60.85
2019-05-01T17:35:47.662Z,59.65
2019-05-01T17:38:17.186Z,58.73
2019-05-01T17:40:47.332Z,64.27
2019-05-01T17:43:18.430Z,63.35
2019-05-01T17:45:48.172Z,61.68
2019-05-01T17:48:17.602Z,65.05
2019-05-01T17:50:47.363Z,64.00
2019-05-01T17:53:18.294Z,64.32
2019-05-01T17:55:48.628Z,63.63
2019-05-01T17:58:18.076Z,67.32
2019-05-01T18:00:56.907Z,63.60
2019-05-01T18:03:40.440Z,65.67
2019-05-01T18:06:11.792Z,64.72
2019-05-01T18:08:41.340Z,66.77
2019-05-01T18:11:14.170Z,67.03
2019-05-01T18:13:42.621Z,68.78
2019-05-01T18:16:12.336Z,70.55
2019-05-01T18:18:41.813Z,65.12
2019-05-01T18:21:12.394Z,63.70
2019-05-01T18:23:59.722Z,66.90
2019-05-01T18:26:47.487Z,65.80
2019-05-01T18:29:18.660Z,65.45
2019-05-01T18:31:48.465Z,71.53
2019-05-01T18:34:18.182Z,73.72
2019-05-01T18:36:54.903Z,72.82
2019-05-01T18:39:28.076Z,78.65
2019-05-01T18:41:59.777Z,71.40
2019-05-01T18:44:29.242Z,78.10
2019-05-01T18:46:59.491Z,75.28
2019-05-01T18:49:29.078Z,77.87
2019-05-01T18:51:59.219Z,78.45
2019-05-01T18:54:30.395Z,74.67
2019-05-01T18:57:01.828Z,75.92
2019-05-01T18:59:31.387Z,76.53
2019-05-01T19:02:01.483Z,73.47
2019-05-01T19:04:31.836Z,74.70
2019-05-01T19:07:01.750Z,72.17
2019-05-01T19:09:31.486Z,79.17
2019-05-01T19:12:01.117Z,84.28
2019-05-01T19:14:30.786Z,84.03
2019-05-01T19:17:00.608Z,79.97
2019-05-01T19:19:30.259Z,81.02
2019-05-01T19:22:00.395Z,81.00
2019-05-01T19:24:32.552Z,78.33
2019-05-01T19:27:01.634Z,80.53
2019-05-01T19:29:32.411Z,83.97
2019-05-01T19:32:02.910Z,84.45
2019-05-01T19:34:32.873Z,86.10
2019-05-01T19:37:02.625Z,93.95
2019-05-01T19:39:42.998Z,92.95
2019-05-01T19:42:03.460Z,97.53
2019-05-01T19:44:33.164Z,97.88
2019-05-01T19:47:02.861Z,95.17
2019-05-01T19:49:32.847Z,95.07
2019-05-01T19:52:02.508Z,90.03
2019-05-01T19:54:32.561Z,97.85
2019-05-01T19:57:02.319Z,99.95
2019-05-01T19:59:32.040Z,101.80
2019-05-01T20:02:01.900Z,101.20
2019-05-01T20:04:31.803Z,101.75
2019-05-01T20:07:01.717Z,92.72
2019-05-01T20:09:32.910Z,108.70
2019-05-01T20:12:02.967Z,106.78
2019-05-01T20:14:32.884Z,111.05
2019-05-01T20:17:04.756Z,106.43
2019-05-01T20:19:34.498Z,105.63
2019-05-01T20:22:04.510Z,103.32
2019-05-01T20:24:34.187Z,101.95
2019-05-01T20:27:04.224Z,111.28
2019-05-01T20:29:33.976Z,107.83
2019-05-01T20:32:03.777Z,109.37
2019-05-01T20:34:34.912Z,112.28
2019-05-01T20:37:04.608Z,110.37
2019-05-01T20:39:34.493Z,103.97
2019-05-01T20:42:04.133Z,107.25
2019-05-01T20:44:33.515Z,103.50
2019-05-01T20:47:04.719Z,111.62
2019-05-01T20:49:36.541Z,116.15
2019-05-01T20:52:06.304Z,117.25
2019-05-01T20:54:37.335Z,118.08
2019-05-01T20:57:20.935Z,122.35
2019-05-01T20:59:48.760Z,116.17
2019-05-01T21:02:18.227Z,123.67
2019-05-01T21:04:55.407Z,124.47
2019-05-01T21:07:32.035Z,119.65
2019-05-01T21:10:03.245Z,120.80
2019-05-01T21:12:32.686Z,119.50
2019-05-01T21:15:02.969Z,116.95
2019-05-01T21:17:33.075Z,123.65
2019-05-01T21:20:03.753Z,120.30
2019-05-01T21:22:33.483Z,114.85
2019-05-01T21:25:04.652Z,116.95
2019-05-01T21:27:34.710Z,122.30
2019-05-01T21:30:06.857Z,122.90
2019-05-01T21:32:36.601Z,118.75
2019-05-01T21:35:06.149Z,122.33
2019-05-01T21:37:35.805Z,126.07
2019-05-01T21:40:07.973Z,78.42
2019-05-01T21:42:37.527Z,98.42
2019-05-01T21:45:07.708Z,80.05
2019-05-01T21:47:37.362Z,90.35
2019-05-01T21:50:07.342Z,107.03
2019-05-01T21:52:37.177Z,109.97
2019-05-01T21:55:07.295Z,132.90
2019-05-01T21:57:40.136Z,127.50
2019-05-01T22:00:10.335Z,113.75
2019-05-01T22:02:41.544Z,123.70
2019-05-01T22:05:11.508Z,116.50
2019-05-01T22:07:41.255Z,108.00
2019-05-01T22:10:11.636Z,115.22
2019-05-01T22:12:44.115Z,113.05
2019-05-01T22:15:17.446Z,99.70
2019-05-01T22:17:51.678Z,102.38
2019-05-01T22:20:22.838Z,112.12
2019-05-01T22:22:57.313Z,118.82
2019-05-01T22:25:37.289Z,126.62
2019-05-01T22:28:20.513Z,139.25
2019-05-01T22:30:51.885Z,145.90
2019-05-01T22:33:21.778Z,140.37
2019-05-01T22:35:52.785Z,137.20
2019-05-01T22:38:22.498Z,135.88
2019-05-01T22:41:06.254Z,130.75
2019-05-01T22:43:27.512Z,136.52
2019-05-01T22:46:01.399Z,142.50
2019-05-01T22:48:28.696Z,132.45
2019-05-01T22:51:00.138Z,133.35
2019-05-01T22:53:29.589Z,128.80
2019-05-01T22:56:02.366Z,130.15
2019-05-01T22:58:31.379Z,129.93
2019-05-01T23:01:01.786Z,124.50
2019-05-01T23:03:40.490Z,128.57
2019-05-01T23:06:08.005Z,124.42
2019-05-01T23:08:37.955Z,132.60
2019-05-01T23:11:19.835Z,120.92
2019-05-01T23:13:42.248Z,126.60
2019-05-01T23:16:12.000Z,123.82
2019-05-01T23:18:41.546Z,120.60
2019-05-01T23:21:14.474Z,116.57
2019-05-01T23:23:42.310Z,120.75
2019-05-01T23:26:16.671Z,110.52
2019-05-01T23:28:43.712Z,129.70
2019-05-01T23:31:13.547Z,116.25
2019-05-01T23:33:45.810Z,120.28
2019-05-01T23:36:23.252Z,129.35
2019-05-01T23:38:46.183Z,123.42
2019-05-01T23:41:15.776Z,122.07
2019-05-01T23:43:45.414Z,120.02
2019-05-01T23:46:15.546Z,119.13
2019-05-01T23:48:45.055Z,125.55
2019-05-01T23:51:15.305Z,119.30
2019-05-01T23:53:48.311Z,121.33
2019-05-01T23:56:16.209Z,136.65
2019-05-01T23:58:45.957Z,134.85
